Nearby METARS Reports

 

LFML - Marseille/Marign, France
Distance from station: O 47km
Mise à jour: 20/09/2017 20:00
clair
clair
 Wind from ONO
Vent: ONO 26 km/h
Température: 19°C
Point de rosée: 7°C
Humidité: 46%
Baromètre: 1017 hPa
Résumé: clair
Visibility: greater than 10 km
2017/09/20 18:00 LFML 201800Z AUTO 30014KT CAVOK 19/07 Q1017 NOSIG
LFMC - Le Luc/Le Cannet, France
Distance from station: ESE 48km
Mise à jour: 20/09/2017 20:00
clair
clair
 Wind from O
Vent: O 7 km/h
Température: 20°C
Point de rosée: 4°C
Humidité: 35%
Baromètre: 1016 hPa
Résumé: clair
Visibility: greater than 10 km
2017/09/20 18:00 LFMC 201800Z 28004KT CAVOK 20/04 Q1016
LFTH - Hyeres/Le Palyve, France
Distance from station: SSE 53km
Mise à jour: 20/09/2017 20:00
clair
clair
 Wind from calm
Vent: calme
Température: 17°C
Point de rosée: 9°C
Humidité: 59%
Baromètre: 1017 hPa
Résumé: clair
Visibility: greater than 10 km
2017/09/20 18:00 LFTH 201800Z AUTO 00000KT CAVOK 17/09 Q1017 NOSIG